createdAt,value
2023-02-11T05:00:33.257Z,2.17
2023-02-11T05:01:33.232Z,2.03
2023-02-11T05:02:33.156Z,2.10
2023-02-11T05:03:33.146Z,2.07
2023-02-11T05:04:33.225Z,2.06
2023-02-11T05:05:33.134Z,1.95
2023-02-11T05:06:33.117Z,1.95
2023-02-11T05:07:33.106Z,1.95
2023-02-11T05:08:33.087Z,1.95
2023-02-11T05:09:33.082Z,1.88
2023-02-11T05:10:41.512Z,1.93
2023-02-11T05:11:38.080Z,1.81
2023-02-11T05:12:33.060Z,1.90
2023-02-11T05:13:33.049Z,1.80
2023-02-11T05:14:33.074Z,1.76
2023-02-11T05:15:33.026Z,1.81
2023-02-11T05:16:33.054Z,1.68
2023-02-11T05:17:32.999Z,1.70
2023-02-11T05:18:32.985Z,1.65
2023-02-11T05:19:32.971Z,1.55
2023-02-11T05:20:32.966Z,1.60
2023-02-11T05:21:32.942Z,1.63
2023-02-11T05:22:37.955Z,1.55
2023-02-11T05:23:32.989Z,1.52
2023-02-11T05:24:32.909Z,1.59
2023-02-11T05:25:32.911Z,1.51
2023-02-11T05:26:32.944Z,1.55
2023-02-11T05:27:32.878Z,1.52
2023-02-11T05:28:32.966Z,1.50
2023-02-11T05:29:32.871Z,1.48
2023-02-11T05:30:32.915Z,1.48
2023-02-11T05:31:32.835Z,1.44
2023-02-11T05:32:32.847Z,1.48
2023-02-11T05:33:37.834Z,1.47
2023-02-11T05:34:32.803Z,1.41
2023-02-11T05:35:32.806Z,1.37
2023-02-11T05:36:33.549Z,1.36
2023-02-11T05:37:32.812Z,1.30
2023-02-11T05:38:32.759Z,1.33
2023-02-11T05:39:32.853Z,1.36
2023-02-11T05:40:32.767Z,1.36
2023-02-11T05:41:33.035Z,1.30
2023-02-11T05:42:32.735Z,1.32
2023-02-11T05:43:32.698Z,1.36
2023-02-11T05:44:37.709Z,1.34
2023-02-11T05:45:32.676Z,1.30
2023-02-11T05:46:32.814Z,1.33
2023-02-11T05:47:32.654Z,1.33
2023-02-11T05:48:32.665Z,1.24
2023-02-11T05:49:32.631Z,1.20
2023-02-11T05:50:32.625Z,1.22
2023-02-11T05:51:32.632Z,1.12
2023-02-11T05:52:32.635Z,1.11
2023-02-11T05:53:32.608Z,1.18
2023-02-11T05:54:32.618Z,1.23
2023-02-11T05:55:37.702Z,1.22
2023-02-11T05:56:32.570Z,1.18
2023-02-11T05:57:32.678Z,1.15
2023-02-11T05:58:32.537Z,1.24
2023-02-11T05:59:32.539Z,1.18
2023-02-11T06:00:32.518Z,1.16
2023-02-11T06:01:32.521Z,1.22
2023-02-11T06:02:32.605Z,1.20
2023-02-11T06:03:32.538Z,1.18
2023-02-11T06:04:32.484Z,1.12
2023-02-11T06:05:32.461Z,1.22
2023-02-11T06:06:37.501Z,1.23
2023-02-11T06:07:32.437Z,1.27
2023-02-11T06:08:32.429Z,1.20
2023-02-11T06:09:32.425Z,1.29
2023-02-11T06:10:32.404Z,1.26
2023-02-11T06:11:32.418Z,1.36
2023-02-11T06:12:32.387Z,1.20
2023-02-11T06:13:32.367Z,1.27
2023-02-11T06:14:32.358Z,1.32
2023-02-11T06:15:32.345Z,1.30
2023-02-11T06:16:32.527Z,1.37
2023-02-11T06:17:37.352Z,1.36
2023-02-11T06:18:32.320Z,1.36
2023-02-11T06:19:32.306Z,1.33
2023-02-11T06:20:32.327Z,1.27
2023-02-11T06:21:43.277Z,1.40
2023-02-11T06:22:34.853Z,1.36
2023-02-11T06:23:32.263Z,1.36
2023-02-11T06:24:58.606Z,1.44
2023-02-11T06:25:33.235Z,1.36
2023-02-11T06:26:32.246Z,1.47
2023-02-11T06:27:32.224Z,1.44
2023-02-11T06:28:38.763Z,1.41
2023-02-11T06:29:32.188Z,1.47
2023-02-11T06:30:32.256Z,1.48
2023-02-11T06:31:32.284Z,1.52
2023-02-11T06:32:44.370Z,1.45
2023-02-11T06:33:33.212Z,1.59
2023-02-11T06:34:32.142Z,1.62
2023-02-11T06:35:32.126Z,1.50
2023-02-11T06:36:32.131Z,1.60
2023-02-11T06:37:32.110Z,1.62
2023-02-11T06:38:32.110Z,1.52
2023-02-11T06:39:37.114Z,1.55
2023-02-11T06:40:32.068Z,1.68
2023-02-11T06:41:32.064Z,1.70
2023-02-11T06:42:32.057Z,1.73
2023-02-11T06:43:32.062Z,1.66
2023-02-11T06:44:32.027Z,1.68
2023-02-11T06:45:32.037Z,1.81
2023-02-11T06:46:32.111Z,1.68
2023-02-11T06:47:32.036Z,1.68
2023-02-11T06:48:31.989Z,1.66
2023-02-11T06:49:31.973Z,1.69
2023-02-11T06:50:37.059Z,1.65
2023-02-11T06:51:31.949Z,1.77
2023-02-11T06:52:31.976Z,1.73
2023-02-11T06:53:31.948Z,1.72
2023-02-11T06:54:31.965Z,1.70
2023-02-11T06:55:31.903Z,1.68
2023-02-11T06:56:31.906Z,1.65
2023-02-11T06:57:31.895Z,1.66
2023-02-11T06:58:31.912Z,1.70
2023-02-11T06:59:31.864Z,1.77
2023-02-11T07:00:31.860Z,1.76
2023-02-11T07:01:36.919Z,1.68
2023-02-11T07:02:31.861Z,1.68
2023-02-11T07:03:31.819Z,1.73
2023-02-11T07:04:31.807Z,1.66
2023-02-11T07:05:31.808Z,1.66
2023-02-11T07:06:31.792Z,1.69
2023-02-11T07:07:34.004Z,1.73
2023-02-11T07:08:31.779Z,1.68
2023-02-11T07:09:31.748Z,1.69
2023-02-11T07:10:31.737Z,1.68
2023-02-11T07:11:31.738Z,1.72
2023-02-11T07:12:36.752Z,1.69
2023-02-11T07:13:31.705Z,1.70
2023-02-11T07:14:31.741Z,1.80
2023-02-11T07:15:31.684Z,1.72
2023-02-11T07:16:31.713Z,1.70
2023-02-11T07:17:31.723Z,1.66
2023-02-11T07:18:31.668Z,1.73
2023-02-11T07:19:31.644Z,1.80
2023-02-11T07:20:31.629Z,1.77
2023-02-11T07:21:31.643Z,1.66
2023-02-11T07:22:31.629Z,1.80
2023-02-11T07:23:36.633Z,1.83
2023-02-11T07:24:31.582Z,1.91
2023-02-11T07:25:31.601Z,1.81
2023-02-11T07:26:31.624Z,1.86
2023-02-11T07:27:31.561Z,1.91
2023-02-11T07:28:31.621Z,1.99
2023-02-11T07:29:31.528Z,1.99
2023-02-11T07:30:31.522Z,2.03
2023-02-11T07:31:31.733Z,2.00
2023-02-11T07:32:31.502Z,2.07
2023-02-11T07:33:31.482Z,2.14
2023-02-11T07:34:36.507Z,2.10
2023-02-11T07:35:31.462Z,2.10
2023-02-11T07:36:31.449Z,2.16
2023-02-11T07:37:31.449Z,2.18
2023-02-11T07:38:31.439Z,2.21
2023-02-11T07:39:31.457Z,2.18
2023-02-11T07:40:31.414Z,2.23
2023-02-11T07:41:31.414Z,2.23
2023-02-11T07:42:31.419Z,2.16
2023-02-11T07:43:31.378Z,2.14
2023-02-11T07:44:31.373Z,2.17
2023-02-11T07:45:36.374Z,2.17
2023-02-11T07:46:31.377Z,2.25
2023-02-11T07:47:31.339Z,2.24
2023-02-11T07:48:31.321Z,2.25
2023-02-11T07:49:31.304Z,2.18
2023-02-11T07:50:31.312Z,2.25
2023-02-11T07:51:31.286Z,2.09
2023-02-11T07:52:31.304Z,2.21
2023-02-11T07:53:31.306Z,2.21
2023-02-11T07:54:31.249Z,2.21
2023-02-11T07:55:31.272Z,2.27
2023-02-11T07:56:36.248Z,2.31
2023-02-11T07:57:31.225Z,2.38
2023-02-11T07:58:31.207Z,2.34
2023-02-11T07:59:31.197Z,2.42
2023-02-11T08:00:31.209Z,2.53
2023-02-11T08:01:31.204Z,2.52
2023-02-11T08:02:31.258Z,2.53
2023-02-11T08:03:31.156Z,2.56
2023-02-11T08:04:31.164Z,2.59
2023-02-11T08:05:31.163Z,2.54
2023-02-11T08:06:31.119Z,2.60
2023-02-11T08:07:36.167Z,2.53
2023-02-11T08:08:31.101Z,2.60
2023-02-11T08:09:33.455Z,2.57
2023-02-11T08:10:31.094Z,2.67
2023-02-11T08:11:31.083Z,2.71
2023-02-11T08:12:31.068Z,2.75
2023-02-11T08:13:31.036Z,2.72
2023-02-11T08:14:31.024Z,2.82
2023-02-11T08:15:31.014Z,2.82
2023-02-11T08:16:31.072Z,2.79
2023-02-11T08:17:31.007Z,2.92
2023-02-11T08:18:36.014Z,2.89
2023-02-11T08:19:32.910Z,2.99
2023-02-11T08:20:30.960Z,2.97
2023-02-11T08:21:30.954Z,2.97
2023-02-11T08:22:30.952Z,3.06
2023-02-11T08:23:30.924Z,3.08
2023-02-11T08:24:30.912Z,3.18
2023-02-11T08:25:30.916Z,3.20
2023-02-11T08:26:30.896Z,3.20
2023-02-11T08:27:30.906Z,3.28
2023-02-11T08:28:31.045Z,3.33
2023-02-11T08:29:35.927Z,3.24
2023-02-11T08:30:30.859Z,3.17
2023-02-11T08:31:31.076Z,3.28
2023-02-11T08:32:30.822Z,3.26
2023-02-11T08:33:30.822Z,3.31
2023-02-11T08:34:30.798Z,3.35
2023-02-11T08:35:30.788Z,3.45
2023-02-11T08:36:30.775Z,3.45
2023-02-11T08:37:33.011Z,3.39
2023-02-11T08:38:30.763Z,3.31
2023-02-11T08:39:30.746Z,3.32
2023-02-11T08:40:35.751Z,3.39
2023-02-11T08:41:30.725Z,3.54
2023-02-11T08:42:30.712Z,3.58
2023-02-11T08:43:30.730Z,3.52
2023-02-11T08:44:30.689Z,3.50
2023-02-11T08:45:30.716Z,3.58
2023-02-11T08:46:30.748Z,3.55
2023-02-11T08:47:30.655Z,3.57
2023-02-11T08:48:30.656Z,3.68
2023-02-11T08:49:30.634Z,3.78
2023-02-11T08:50:30.693Z,3.75
2023-02-11T08:51:35.635Z,3.76
2023-02-11T08:52:30.604Z,3.79
2023-02-11T08:53:30.616Z,3.73
2023-02-11T08:54:30.573Z,3.62
2023-02-11T08:55:30.575Z,3.65
2023-02-11T08:56:30.560Z,3.62
2023-02-11T08:57:30.564Z,3.75
2023-02-11T08:58:30.543Z,3.73
2023-02-11T08:59:30.558Z,3.75
2023-02-11T09:00:30.506Z,3.98
2023-02-11T09:01:30.586Z,4.06
2023-02-11T09:02:35.551Z,4.20
2023-02-11T09:03:30.483Z,4.18
2023-02-11T09:04:30.465Z,4.33
2023-02-11T09:05:30.458Z,4.34
2023-02-11T09:06:30.440Z,4.41
2023-02-11T09:07:30.441Z,4.42
2023-02-11T09:08:30.424Z,4.55
2023-02-11T09:09:30.408Z,4.75
2023-02-11T09:10:30.392Z,5.03
2023-02-11T09:11:30.387Z,5.33
2023-02-11T09:12:30.372Z,5.54
2023-02-11T09:13:35.392Z,5.79
2023-02-11T09:14:30.351Z,5.91
2023-02-11T09:15:30.361Z,5.64
2023-02-11T09:16:30.362Z,5.33
2023-02-11T09:17:30.314Z,5.27
2023-02-11T09:18:30.332Z,5.03
2023-02-11T09:19:30.288Z,4.85
2023-02-11T09:20:30.305Z,4.86
2023-02-11T09:21:30.283Z,4.92
2023-02-11T09:22:30.350Z,5.17
2023-02-11T09:23:30.274Z,5.20
2023-02-11T09:24:35.273Z,5.38
2023-02-11T09:25:30.223Z,5.46
2023-02-11T09:26:30.284Z,5.74
2023-02-11T09:27:30.238Z,6.17
2023-02-11T09:28:30.277Z,6.31
2023-02-11T09:29:30.239Z,6.62
2023-02-11T09:30:30.353Z,6.99
2023-02-11T09:31:30.335Z,7.09
2023-02-11T09:32:30.144Z,6.99
2023-02-11T09:33:30.143Z,6.71
2023-02-11T09:34:30.183Z,6.91
2023-02-11T09:35:35.135Z,6.99
2023-02-11T09:36:30.109Z,7.30
2023-02-11T09:37:30.090Z,7.75
2023-02-11T09:38:30.080Z,7.83
2023-02-11T09:39:30.122Z,7.64
2023-02-11T09:40:30.054Z,7.12
2023-02-11T09:41:30.052Z,6.80
2023-02-11T09:42:30.047Z,6.66
2023-02-11T09:43:30.021Z,6.98
2023-02-11T09:44:30.026Z,7.25
2023-02-11T09:45:29.997Z,7.67
2023-02-11T09:46:35.097Z,8.01
2023-02-11T09:47:29.978Z,8.10
2023-02-11T09:48:29.977Z,8.10
2023-02-11T09:49:29.962Z,8.45
2023-02-11T09:50:29.945Z,8.23
2023-02-11T09:51:29.991Z,7.83
2023-02-11T09:52:29.925Z,7.79
2023-02-11T09:53:29.933Z,7.48
2023-02-11T09:54:29.918Z,7.53
2023-02-11T09:55:29.888Z,7.53
2023-02-11T09:56:29.893Z,7.74
2023-02-11T09:57:34.887Z,7.63
2023-02-11T09:58:29.854Z,7.74
2023-02-11T09:59:29.910Z,7.89
2023-02-11T10:00:29.876Z,8.10
2023-02-11T10:01:30.890Z,8.33
2023-02-11T10:02:29.874Z,8.20
2023-02-11T10:03:29.807Z,7.75
2023-02-11T10:04:29.894Z,7.67
2023-02-11T10:05:29.784Z,7.77
2023-02-11T10:06:29.825Z,7.64
2023-02-11T10:07:29.752Z,7.64
2023-02-11T10:08:34.765Z,7.34
2023-02-11T10:09:29.741Z,7.52
2023-02-11T10:10:29.732Z,7.60
2023-02-11T10:11:31.929Z,7.75
2023-02-11T10:12:29.696Z,7.80
2023-02-11T10:13:29.697Z,7.90
2023-02-11T10:14:29.724Z,7.98
2023-02-11T10:15:29.714Z,7.87
2023-02-11T10:16:29.662Z,7.79
2023-02-11T10:17:29.637Z,7.77
2023-02-11T10:18:29.651Z,7.72
2023-02-11T10:19:34.638Z,7.61
2023-02-11T10:20:29.626Z,7.53
2023-02-11T10:21:29.613Z,7.52
2023-02-11T10:22:29.590Z,7.57
2023-02-11T10:23:29.628Z,7.74
2023-02-11T10:24:29.567Z,7.82
2023-02-11T10:25:29.570Z,8.00
2023-02-11T10:26:29.549Z,8.07
2023-02-11T10:27:29.528Z,8.05
2023-02-11T10:28:29.643Z,8.00
2023-02-11T10:29:29.502Z,8.02
2023-02-11T10:30:34.564Z,8.08
2023-02-11T10:31:29.589Z,8.15
2023-02-11T10:32:29.473Z,8.26
2023-02-11T10:33:29.456Z,8.12
2023-02-11T10:34:29.471Z,8.00
2023-02-11T10:35:29.445Z,8.12
2023-02-11T10:36:29.425Z,8.08
2023-02-11T10:37:29.415Z,7.85
2023-02-11T10:38:29.404Z,7.85
2023-02-11T10:39:29.416Z,7.86
2023-02-11T10:40:29.394Z,7.86
2023-02-11T10:41:34.402Z,7.86
2023-02-11T10:42:29.360Z,7.83
2023-02-11T10:43:29.345Z,7.82
2023-02-11T10:44:29.343Z,7.85
2023-02-11T10:45:29.341Z,7.80
2023-02-11T10:46:29.361Z,7.64
2023-02-11T10:47:29.312Z,7.58
2023-02-11T10:48:29.288Z,7.77
2023-02-11T10:49:29.304Z,7.79
2023-02-11T10:50:29.291Z,7.89
2023-02-11T10:51:29.266Z,8.01
2023-02-11T10:52:34.267Z,8.00
2023-02-11T10:53:29.236Z,8.07
2023-02-11T10:54:29.222Z,8.23
2023-02-11T10:55:29.214Z,8.41
2023-02-11T10:56:29.505Z,8.36
2023-02-11T10:57:29.187Z,8.28
2023-02-11T10:58:29.192Z,8.53
2023-02-11T10:59:29.171Z,8.63
2023-02-11T11:00:29.157Z,8.70
2023-02-11T11:01:29.164Z,8.77
2023-02-11T11:02:29.136Z,8.83
2023-02-11T11:03:34.143Z,8.92
2023-02-11T11:04:29.141Z,8.98
2023-02-11T11:05:29.154Z,8.99
2023-02-11T11:06:29.147Z,9.15
2023-02-11T11:07:29.085Z,9.26
2023-02-11T11:08:29.069Z,9.29
2023-02-11T11:09:29.057Z,9.51
2023-02-11T11:10:29.056Z,9.78
2023-02-11T11:11:29.050Z,10.11
2023-02-11T11:12:29.039Z,10.23
2023-02-11T11:13:29.037Z,10.18
2023-02-11T11:14:34.029Z,10.23
2023-02-11T11:15:28.992Z,10.22
2023-02-11T11:16:29.115Z,10.22
2023-02-11T11:17:28.964Z,9.97
2023-02-11T11:18:28.953Z,9.84
2023-02-11T11:19:28.942Z,9.79
2023-02-11T11:20:28.934Z,9.89
2023-02-11T11:21:28.940Z,9.71
2023-02-11T11:22:28.929Z,9.66
2023-02-11T11:23:28.900Z,9.65
2023-02-11T11:24:28.890Z,9.68
2023-02-11T11:25:33.897Z,9.51
2023-02-11T11:26:28.879Z,9.39
2023-02-11T11:27:28.850Z,9.31
2023-02-11T11:28:28.874Z,9.39
2023-02-11T11:29:28.828Z,9.46
2023-02-11T11:30:28.873Z,9.54
2023-02-11T11:31:28.984Z,9.64
2023-02-11T11:32:28.794Z,9.68
2023-02-11T11:33:28.778Z,9.71
2023-02-11T11:34:28.772Z,9.48
2023-02-11T11:35:28.757Z,9.57
2023-02-11T11:36:33.780Z,9.33
2023-02-11T11:37:28.741Z,9.54
2023-02-11T11:38:28.749Z,9.69
2023-02-11T11:39:28.709Z,9.71
2023-02-11T11:40:28.709Z,10.02
2023-02-11T11:41:28.697Z,10.18
2023-02-11T11:42:28.697Z,10.18
2023-02-11T11:43:28.668Z,10.15
2023-02-11T11:44:28.665Z,9.68
2023-02-11T11:45:28.648Z,9.75
2023-02-11T11:46:28.684Z,9.65
2023-02-11T11:47:33.639Z,9.46
2023-02-11T11:48:28.607Z,9.38
2023-02-11T11:49:28.613Z,9.43
2023-02-11T11:50:28.602Z,9.17
2023-02-11T11:51:28.649Z,8.94
2023-02-11T11:52:28.563Z,8.99
2023-02-11T11:53:28.549Z,9.02
2023-02-11T11:54:28.555Z,9.13
2023-02-11T11:55:28.535Z,9.31
2023-02-11T11:56:28.519Z,9.39
2023-02-11T11:57:28.525Z,9.48
2023-02-11T11:58:33.515Z,9.51
2023-02-11T11:59:28.498Z,9.36
2023-02-11T12:00:28.469Z,9.47
2023-02-11T12:01:28.472Z,9.21
2023-02-11T12:02:28.460Z,8.99
2023-02-11T12:03:28.471Z,8.71
2023-02-11T12:04:28.427Z,8.48
2023-02-11T12:05:28.423Z,8.55
2023-02-11T12:06:28.409Z,8.65
2023-02-11T12:07:28.417Z,8.80
2023-02-11T12:08:28.376Z,8.98
2023-02-11T12:09:33.404Z,9.14
2023-02-11T12:10:28.385Z,9.46
2023-02-11T12:11:28.353Z,9.54
2023-02-11T12:12:28.354Z,9.71
2023-02-11T12:13:28.349Z,9.96
2023-02-11T12:14:28.314Z,10.25
2023-02-11T12:15:28.314Z,10.36
2023-02-11T12:16:28.354Z,10.34
2023-02-11T12:17:28.284Z,9.94
2023-02-11T12:18:28.266Z,9.75
2023-02-11T12:19:28.248Z,9.76
2023-02-11T12:20:33.264Z,10.09
2023-02-11T12:21:28.243Z,9.99
2023-02-11T12:22:28.227Z,9.91
2023-02-11T12:23:28.213Z,9.74
2023-02-11T12:24:28.196Z,9.84
2023-02-11T12:25:28.196Z,10.17
2023-02-11T12:26:28.198Z,10.34
2023-02-11T12:27:28.163Z,10.32
2023-02-11T12:28:28.179Z,10.18
2023-02-11T12:29:28.142Z,10.25
2023-02-11T12:30:28.145Z,10.20
2023-02-11T12:31:33.179Z,10.36
2023-02-11T12:32:28.112Z,10.68
2023-02-11T12:33:28.088Z,10.82
2023-02-11T12:34:28.092Z,10.86
2023-02-11T12:35:28.077Z,11.00
2023-02-11T12:36:28.153Z,10.85
2023-02-11T12:37:28.056Z,10.73
2023-02-11T12:38:28.037Z,10.51
2023-02-11T12:39:28.022Z,10.73
2023-02-11T12:40:28.015Z,10.96
2023-02-11T12:41:28.063Z,10.97
2023-02-11T12:42:33.022Z,11.04
2023-02-11T12:43:28.123Z,11.04
2023-02-11T12:44:27.965Z,10.92
2023-02-11T12:45:28.021Z,10.78
2023-02-11T12:46:27.953Z,10.55
2023-02-11T12:47:27.946Z,10.12
2023-02-11T12:48:27.919Z,9.71
2023-02-11T12:49:27.913Z,9.58
2023-02-11T12:50:27.899Z,9.51
2023-02-11T12:51:27.884Z,9.54
2023-02-11T12:52:27.884Z,9.54
2023-02-11T12:53:32.884Z,9.65
2023-02-11T12:54:27.854Z,9.71
2023-02-11T12:55:27.839Z,9.66
2023-02-11T12:56:27.835Z,9.66
2023-02-11T12:57:27.858Z,9.53
2023-02-11T12:58:42.941Z,9.43
2023-02-11T12:59:28.798Z,9.46
2023-02-11T13:00:27.784Z,9.43
2023-02-11T13:01:27.920Z,9.46
2023-02-11T13:02:27.797Z,9.39
2023-02-11T13:03:27.771Z,9.29
2023-02-11T13:04:32.759Z,9.39
2023-02-11T13:05:27.729Z,9.39
2023-02-11T13:06:27.747Z,9.40
2023-02-11T13:07:27.713Z,9.40
2023-02-11T13:08:27.711Z,9.43
2023-02-11T13:09:27.683Z,9.32
2023-02-11T13:10:27.669Z,9.40
2023-02-11T13:11:27.664Z,9.39
2023-02-11T13:12:27.646Z,9.42
2023-02-11T13:13:27.671Z,9.42
2023-02-11T13:14:27.624Z,9.33
2023-02-11T13:15:32.637Z,9.39
2023-02-11T13:16:27.681Z,9.38
2023-02-11T13:17:27.595Z,9.29
2023-02-11T13:18:27.593Z,9.28
2023-02-11T13:19:27.583Z,9.33
2023-02-11T13:20:27.566Z,9.31
2023-02-11T13:21:27.548Z,9.26
2023-02-11T13:22:27.537Z,9.32
2023-02-11T13:23:29.408Z,9.24
2023-02-11T13:24:27.519Z,9.26
2023-02-11T13:25:27.502Z,9.23
2023-02-11T13:26:32.566Z,9.21
2023-02-11T13:27:27.478Z,9.24
2023-02-11T13:28:27.547Z,9.24
2023-02-11T13:29:27.499Z,9.24
2023-02-11T13:30:27.496Z,9.23
2023-02-11T13:31:27.609Z,9.21
2023-02-11T13:32:27.426Z,9.18
2023-02-11T13:33:27.423Z,9.24
2023-02-11T13:34:27.419Z,9.26
2023-02-11T13:35:27.392Z,9.23
2023-02-11T13:36:27.396Z,9.21
2023-02-11T13:37:32.399Z,9.21
2023-02-11T13:38:27.370Z,9.14
2023-02-11T13:39:27.356Z,9.14
2023-02-11T13:40:27.331Z,9.10
2023-02-11T13:41:27.334Z,9.15
2023-02-11T13:42:27.324Z,9.05
2023-02-11T13:43:27.309Z,8.87
2023-02-11T13:44:27.286Z,8.81
2023-02-11T13:45:27.306Z,8.73
2023-02-11T13:46:27.314Z,8.79
2023-02-11T13:47:27.251Z,8.87
2023-02-11T13:48:32.275Z,8.87
2023-02-11T13:49:27.231Z,8.83
2023-02-11T13:50:27.219Z,8.81
2023-02-11T13:51:27.209Z,8.86
2023-02-11T13:52:27.197Z,8.80
2023-02-11T13:53:27.197Z,8.83
2023-02-11T13:54:27.174Z,8.73
2023-02-11T13:55:27.160Z,8.71
2023-02-11T13:56:27.151Z,8.68
2023-02-11T13:57:27.146Z,8.73
2023-02-11T13:58:27.146Z,8.68
2023-02-11T13:59:32.136Z,8.83
2023-02-11T14:00:27.104Z,8.77
2023-02-11T14:01:27.183Z,8.83
2023-02-11T14:02:27.138Z,8.84
2023-02-11T14:03:27.084Z,8.76
2023-02-11T14:04:27.059Z,8.84
2023-02-11T14:05:27.048Z,8.83
2023-02-11T14:06:27.044Z,8.71
2023-02-11T14:07:27.025Z,8.73
2023-02-11T14:08:27.022Z,8.77
2023-02-11T14:09:27.005Z,8.68
2023-02-11T14:10:32.018Z,8.48
2023-02-11T14:11:26.983Z,8.52
2023-02-11T14:12:26.969Z,8.43
2023-02-11T14:13:26.970Z,8.44
2023-02-11T14:14:26.953Z,8.47
2023-02-11T14:15:26.937Z,8.43
2023-02-11T14:16:37.408Z,8.38
2023-02-11T14:17:28.004Z,8.41
2023-02-11T14:18:26.907Z,8.53
2023-02-11T14:19:26.937Z,8.55
2023-02-11T14:20:26.887Z,8.50
2023-02-11T14:21:31.893Z,8.61
2023-02-11T14:22:26.855Z,8.50
2023-02-11T14:23:26.848Z,8.47
2023-02-11T14:24:26.847Z,8.59
2023-02-11T14:25:26.825Z,8.59
2023-02-11T14:26:26.820Z,8.56
2023-02-11T14:27:26.802Z,8.53
2023-02-11T14:28:26.950Z,8.50
2023-02-11T14:29:26.790Z,8.45
2023-02-11T14:30:26.764Z,8.52
2023-02-11T14:31:26.956Z,8.50
2023-02-11T14:32:31.781Z,8.47
2023-02-11T14:33:26.737Z,8.40
2023-02-11T14:34:26.732Z,8.44
2023-02-11T14:35:26.710Z,8.45
2023-02-11T14:36:26.699Z,8.45
2023-02-11T14:37:26.688Z,8.45
2023-02-11T14:38:26.679Z,8.47
2023-02-11T14:39:26.704Z,8.50
2023-02-11T14:40:26.684Z,8.43
2023-02-11T14:41:26.697Z,8.40
2023-02-11T14:42:26.674Z,8.47
2023-02-11T14:43:31.653Z,8.44
2023-02-11T14:44:26.629Z,8.38
2023-02-11T14:45:26.600Z,8.43
2023-02-11T14:46:26.689Z,8.45
2023-02-11T14:47:26.909Z,8.41
2023-02-11T14:48:26.601Z,8.45
2023-02-11T14:49:26.569Z,8.40
2023-02-11T14:50:26.545Z,8.50
2023-02-11T14:51:26.531Z,8.50
2023-02-11T14:52:26.521Z,8.50
2023-02-11T14:53:26.534Z,8.45
2023-02-11T14:54:31.526Z,8.56
2023-02-11T14:55:26.498Z,8.45
2023-02-11T14:56:26.550Z,8.47
2023-02-11T14:57:26.467Z,8.50
2023-02-11T14:58:26.458Z,8.38
2023-02-11T14:59:26.453Z,8.47
2023-02-11T15:00:26.506Z,8.50
2023-02-11T15:01:26.433Z,8.38
2023-02-11T15:02:26.499Z,8.41
2023-02-11T15:03:26.397Z,8.47
2023-02-11T15:04:26.422Z,8.47
2023-02-11T15:05:31.401Z,8.45
2023-02-11T15:06:26.358Z,8.40
2023-02-11T15:07:26.351Z,8.38
2023-02-11T15:08:26.337Z,8.47
2023-02-11T15:09:26.376Z,8.41
2023-02-11T15:10:26.335Z,8.34
2023-02-11T15:11:26.309Z,8.34
2023-02-11T15:12:26.295Z,8.20
2023-02-11T15:13:26.287Z,8.22
2023-02-11T15:14:26.276Z,8.25
2023-02-11T15:15:26.257Z,8.26
2023-02-11T15:16:31.268Z,8.23
2023-02-11T15:17:26.234Z,8.26
2023-02-11T15:18:26.245Z,8.22
2023-02-11T15:19:26.225Z,8.22
2023-02-11T15:20:26.227Z,8.25
2023-02-11T15:21:26.190Z,8.23
2023-02-11T15:22:26.176Z,8.22
2023-02-11T15:23:26.184Z,8.29
2023-02-11T15:24:26.188Z,8.34
2023-02-11T15:25:26.145Z,8.43
2023-02-11T15:26:26.196Z,8.33
2023-02-11T15:27:31.148Z,8.44
2023-02-11T15:28:26.277Z,8.40
2023-02-11T15:29:26.140Z,8.44
2023-02-11T15:30:26.095Z,8.47
2023-02-11T15:31:26.293Z,8.43
2023-02-11T15:32:26.186Z,8.48
2023-02-11T15:33:26.085Z,8.47
2023-02-11T15:34:26.056Z,8.44
2023-02-11T15:35:26.059Z,8.48
2023-02-11T15:36:26.047Z,8.34
2023-02-11T15:37:26.018Z,8.41
2023-02-11T15:38:31.026Z,8.40
2023-02-11T15:39:25.987Z,8.37
2023-02-11T15:40:25.984Z,8.33
2023-02-11T15:41:25.964Z,8.29
2023-02-11T15:42:25.955Z,8.34
2023-02-11T15:43:25.947Z,8.34
2023-02-11T15:44:25.928Z,8.33
2023-02-11T15:45:25.953Z,8.30
2023-02-11T15:46:25.946Z,8.45
2023-02-11T15:47:25.911Z,8.38
2023-02-11T15:48:25.885Z,8.44
2023-02-11T15:49:30.895Z,8.40
2023-02-11T15:50:25.878Z,8.47
2023-02-11T15:51:25.851Z,8.34
2023-02-11T15:52:25.863Z,8.29
2023-02-11T15:53:25.832Z,8.37
2023-02-11T15:54:25.875Z,8.33
2023-02-11T15:55:25.843Z,8.20
2023-02-11T15:56:25.854Z,8.28
2023-02-11T15:57:25.788Z,8.30
2023-02-11T15:58:25.771Z,8.34
2023-02-11T15:59:25.780Z,8.30
2023-02-11T16:00:30.781Z,8.30
2023-02-11T16:01:25.781Z,8.38
2023-02-11T16:02:25.723Z,8.34
2023-02-11T16:03:25.714Z,8.28
2023-02-11T16:04:25.773Z,8.30
2023-02-11T16:05:25.709Z,8.33
2023-02-11T16:06:25.691Z,8.23
2023-02-11T16:07:25.669Z,8.22
2023-02-11T16:08:25.687Z,8.28
2023-02-11T16:09:25.647Z,8.28
2023-02-11T16:10:25.652Z,8.23
2023-02-11T16:11:30.648Z,8.23
2023-02-11T16:12:25.623Z,8.28
2023-02-11T16:13:25.603Z,8.22
2023-02-11T16:14:25.608Z,8.25
2023-02-11T16:15:25.595Z,8.23
2023-02-11T16:16:25.607Z,8.22
2023-02-11T16:17:25.556Z,8.29
2023-02-11T16:18:36.795Z,8.29
2023-02-11T16:19:26.547Z,8.33
2023-02-11T16:20:25.574Z,8.34
2023-02-11T16:21:25.552Z,8.22
2023-02-11T16:22:30.525Z,8.23
2023-02-11T16:23:25.495Z,8.23
2023-02-11T16:24:25.497Z,8.22
2023-02-11T16:25:25.480Z,8.19
2023-02-11T16:26:25.452Z,8.16
2023-02-11T16:27:25.485Z,8.25
2023-02-11T16:28:25.522Z,8.16
2023-02-11T16:29:25.433Z,8.12
2023-02-11T16:30:25.475Z,8.25
2023-02-11T16:31:25.569Z,8.20
2023-02-11T16:32:25.393Z,8.20
2023-02-11T16:33:30.405Z,8.11
2023-02-11T16:34:25.372Z,8.23
2023-02-11T16:35:25.350Z,8.05
2023-02-11T16:36:25.493Z,8.15
2023-02-11T16:37:25.331Z,8.08
2023-02-11T16:38:25.328Z,8.08
2023-02-11T16:39:25.319Z,8.08
2023-02-11T16:40:25.324Z,8.08
2023-02-11T16:41:25.298Z,8.10
2023-02-11T16:42:25.270Z,8.07
2023-02-11T16:43:25.263Z,7.98
2023-02-11T16:44:31.015Z,8.04
2023-02-11T16:45:25.238Z,7.93
2023-02-11T16:46:25.279Z,8.05
2023-02-11T16:47:25.217Z,8.02
2023-02-11T16:48:25.206Z,8.02
2023-02-11T16:49:25.221Z,7.92
2023-02-11T16:50:25.197Z,8.01
2023-02-11T16:51:25.181Z,8.00
2023-02-11T16:52:25.181Z,7.98
2023-02-11T16:53:25.150Z,7.98
2023-02-11T16:54:25.139Z,8.04
2023-02-11T16:55:30.168Z,7.98
2023-02-11T16:56:25.184Z,8.01
2023-02-11T16:57:26.921Z,8.00
2023-02-11T16:58:25.265Z,7.97
2023-02-11T16:59:25.083Z,7.89
2023-02-11T17:00:25.080Z,7.86
2023-02-11T17:01:25.149Z,7.83
2023-02-11T17:02:25.045Z,7.87
2023-02-11T17:03:25.039Z,7.77
2023-02-11T17:04:25.109Z,7.83
2023-02-11T17:05:25.020Z,7.82
2023-02-11T17:06:30.047Z,7.83
2023-02-11T17:07:25.002Z,7.89
2023-02-11T17:08:24.982Z,7.86
2023-02-11T17:09:24.964Z,7.89
2023-02-11T17:10:24.957Z,7.86
2023-02-11T17:11:24.983Z,7.90
2023-02-11T17:12:24.938Z,7.90
2023-02-11T17:13:24.928Z,7.87
2023-02-11T17:14:24.911Z,7.89
2023-02-11T17:15:24.905Z,7.86
2023-02-11T17:16:25.054Z,7.92
2023-02-11T17:17:29.907Z,7.89
2023-02-11T17:18:24.862Z,7.90
2023-02-11T17:19:24.849Z,7.89
2023-02-11T17:20:24.853Z,7.95
2023-02-11T17:21:24.867Z,7.87
2023-02-11T17:22:24.821Z,7.90
2023-02-11T17:23:24.831Z,7.85
2023-02-11T17:24:24.794Z,7.89
2023-02-11T17:25:24.784Z,7.89
2023-02-11T17:26:24.796Z,7.97
2023-02-11T17:27:24.778Z,7.98
2023-02-11T17:28:29.838Z,8.01
2023-02-11T17:29:24.742Z,7.90
2023-02-11T17:30:24.735Z,7.95
2023-02-11T17:31:24.847Z,8.01
2023-02-11T17:32:24.804Z,7.95
2023-02-11T17:33:24.694Z,7.98
2023-02-11T17:34:24.679Z,8.00
2023-02-11T17:35:24.685Z,8.05
2023-02-11T17:36:24.660Z,8.04
2023-02-11T17:37:24.669Z,8.05
2023-02-11T17:38:24.636Z,8.07
2023-02-11T17:39:29.648Z,7.98
2023-02-11T17:40:24.621Z,8.01
2023-02-11T17:41:24.615Z,8.00
2023-02-11T17:42:24.612Z,7.97
2023-02-11T17:43:24.603Z,8.02
2023-02-11T17:44:24.567Z,8.00
2023-02-11T17:45:24.576Z,8.00
2023-02-11T17:46:24.545Z,8.01
2023-02-11T17:47:24.541Z,8.00
2023-02-11T17:48:24.528Z,8.08
2023-02-11T17:49:24.515Z,8.10
2023-02-11T17:50:29.651Z,7.98
2023-02-11T17:51:24.515Z,8.08
2023-02-11T17:52:24.521Z,8.02
2023-02-11T17:53:24.469Z,8.04
2023-02-11T17:54:24.454Z,8.01
2023-02-11T17:55:24.448Z,8.02
2023-02-11T17:56:24.437Z,8.16
2023-02-11T17:57:24.438Z,8.05
2023-02-11T17:58:24.454Z,8.04
2023-02-11T17:59:24.416Z,8.04
2023-02-11T18:00:24.386Z,8.05
2023-02-11T18:01:29.507Z,8.05
2023-02-11T18:02:24.376Z,8.02
2023-02-11T18:03:24.354Z,8.11
2023-02-11T18:04:24.482Z,8.12
2023-02-11T18:05:24.330Z,8.07
2023-02-11T18:06:24.323Z,8.10
2023-02-11T18:07:24.316Z,8.10
2023-02-11T18:08:24.316Z,8.11
2023-02-11T18:09:24.289Z,8.05
2023-02-11T18:10:24.278Z,8.07
2023-02-11T18:11:24.265Z,8.11
2023-02-11T18:12:29.310Z,8.12
2023-02-11T18:13:24.242Z,8.11
2023-02-11T18:14:24.246Z,8.07
2023-02-11T18:15:24.236Z,8.08
2023-02-11T18:16:24.243Z,8.10
2023-02-11T18:17:24.208Z,8.08